createdAt,value
2023-02-07T00:01:47.665Z,73.27
2023-02-07T00:04:53.610Z,72.47
2023-02-07T00:08:00.114Z,72.03
2023-02-07T00:11:06.072Z,72.13
2023-02-07T00:14:12.328Z,71.45
2023-02-07T00:17:17.576Z,70.84
2023-02-07T00:20:24.264Z,70.38
2023-02-07T00:23:29.691Z,70.40
2023-02-07T00:26:37.166Z,70.12
2023-02-07T00:29:43.147Z,69.30
2023-02-07T00:32:48.850Z,69.84
2023-02-07T00:35:55.834Z,69.65
2023-02-07T00:39:02.361Z,69.86
2023-02-07T00:42:07.695Z,70.01
2023-02-07T00:45:13.190Z,68.98
2023-02-07T00:48:19.631Z,68.56
2023-02-07T00:51:26.417Z,67.93
2023-02-07T00:54:31.888Z,67.98
2023-02-07T00:57:37.391Z,68.32
2023-02-07T01:00:44.354Z,68.11
2023-02-07T01:03:50.743Z,67.78
2023-02-07T01:06:58.231Z,68.47
2023-02-07T01:10:05.821Z,68.94
2023-02-07T01:13:11.438Z,69.55
2023-02-07T01:16:17.036Z,70.02
2023-02-07T01:19:23.950Z,69.15
2023-02-07T01:22:29.721Z,69.47
2023-02-07T01:25:35.871Z,69.31
2023-02-07T01:28:41.245Z,68.74
2023-02-07T01:31:47.950Z,68.51
2023-02-07T01:34:53.811Z,68.78
2023-02-07T01:37:59.879Z,68.21
2023-02-07T01:40:59.505Z,68.54
2023-02-07T01:44:09.418Z,68.94
2023-02-07T01:47:14.671Z,68.78
2023-02-07T01:50:14.293Z,69.11
2023-02-07T01:53:07.871Z,69.32
2023-02-07T01:56:30.464Z,69.77
2023-02-07T01:59:22.976Z,70.27
2023-02-07T02:02:31.119Z,70.34
2023-02-07T02:05:37.606Z,70.69
2023-02-07T02:08:43.545Z,70.78
2023-02-07T02:12:22.320Z,70.87
2023-02-07T02:15:57.270Z,69.47
2023-02-07T02:19:10.427Z,68.33
2023-02-07T02:22:36.934Z,68.20
2023-02-07T02:25:52.149Z,68.63
2023-02-07T02:29:24.243Z,69.01
2023-02-07T02:33:06.091Z,69.26
2023-02-07T02:36:34.960Z,69.25
2023-02-07T02:39:52.680Z,69.45
2023-02-07T02:43:02.934Z,69.56
2023-02-07T02:46:10.207Z,69.22
2023-02-07T02:49:15.823Z,69.06
2023-02-07T02:52:21.191Z,69.27
2023-02-07T02:55:26.308Z,68.92
2023-02-07T02:58:55.870Z,68.85
2023-02-07T03:02:07.556Z,68.86
2023-02-07T03:05:52.567Z,69.42
2023-02-07T03:09:34.242Z,69.39
2023-02-07T03:13:05.342Z,69.58
2023-02-07T03:16:43.700Z,69.71
2023-02-07T03:19:53.819Z,69.94
2023-02-07T03:22:59.834Z,69.46
2023-02-07T03:26:04.980Z,69.08
2023-02-07T03:29:11.262Z,69.29
2023-02-07T03:32:19.293Z,69.68
2023-02-07T03:35:35.027Z,68.96
2023-02-07T03:38:39.694Z,68.02
2023-02-07T03:41:58.404Z,66.90
2023-02-07T03:45:05.471Z,66.42
2023-02-07T03:48:10.527Z,65.89
2023-02-07T03:51:15.944Z,66.18
2023-02-07T03:54:22.442Z,66.04
2023-02-07T03:57:28.664Z,66.47
2023-02-07T04:00:34.351Z,66.33
2023-02-07T04:03:39.675Z,66.64
2023-02-07T04:06:45.187Z,66.79
2023-02-07T04:09:50.991Z,66.94
2023-02-07T04:12:57.993Z,66.88
2023-02-07T04:16:03.627Z,67.07
2023-02-07T04:19:09.946Z,67.29
2023-02-07T04:22:17.405Z,67.81
2023-02-07T04:25:22.498Z,68.46
2023-02-07T04:28:28.183Z,68.99
2023-02-07T04:31:34.306Z,69.41
2023-02-07T04:34:40.230Z,69.79
2023-02-07T04:37:47.244Z,70.01
2023-02-07T04:40:54.102Z,70.18
2023-02-07T04:43:58.916Z,70.74
2023-02-07T04:47:04.545Z,71.22
2023-02-07T04:50:10.511Z,71.38
2023-02-07T04:53:16.889Z,71.29
2023-02-07T04:56:23.784Z,71.73
2023-02-07T04:59:30.036Z,71.87
2023-02-07T05:02:36.930Z,72.03
2023-02-07T05:05:42.560Z,71.76
2023-02-07T05:08:42.976Z,72.55
2023-02-07T05:11:49.213Z,72.19
2023-02-07T05:14:54.635Z,72.19
2023-02-07T05:18:00.682Z,72.84
2023-02-07T05:21:06.597Z,72.27
2023-02-07T05:24:12.437Z,72.59
2023-02-07T05:27:17.258Z,72.19
2023-02-07T05:30:23.900Z,72.27
2023-02-07T05:33:28.904Z,71.92
2023-02-07T05:36:34.618Z,71.56
2023-02-07T05:39:33.073Z,71.61
2023-02-07T05:42:38.244Z,72.19
2023-02-07T05:45:44.624Z,71.99
2023-02-07T05:48:50.139Z,72.08
2023-02-07T05:51:56.388Z,72.02
2023-02-07T05:55:03.229Z,72.80
2023-02-07T05:58:08.620Z,72.45
2023-02-07T06:01:17.389Z,72.63
2023-02-07T06:04:22.883Z,72.42
2023-02-07T06:07:28.122Z,72.17
2023-02-07T06:10:34.770Z,72.12
2023-02-07T06:13:39.927Z,71.68
2023-02-07T06:16:45.443Z,71.62
2023-02-07T06:19:53.379Z,71.34
2023-02-07T06:22:59.557Z,71.00
2023-02-07T06:26:05.323Z,70.65
2023-02-07T06:29:10.929Z,70.35
2023-02-07T06:32:17.331Z,69.97
2023-02-07T06:35:23.025Z,70.20
2023-02-07T06:38:30.540Z,69.61
2023-02-07T06:41:36.938Z,69.91
2023-02-07T06:44:42.473Z,69.75
2023-02-07T06:47:42.177Z,69.76
2023-02-07T06:50:48.184Z,70.03
2023-02-07T06:53:53.087Z,69.83
2023-02-07T06:56:59.930Z,69.68
2023-02-07T07:00:05.626Z,70.20
2023-02-07T07:03:12.266Z,69.72
2023-02-07T07:06:18.845Z,69.71
2023-02-07T07:09:25.033Z,69.32
2023-02-07T07:12:31.036Z,69.26
2023-02-07T07:15:38.008Z,69.95
2023-02-07T07:18:45.279Z,69.48
2023-02-07T07:21:51.106Z,69.43
2023-02-07T07:24:57.284Z,69.04
2023-02-07T07:28:03.129Z,68.77
2023-02-07T07:31:08.956Z,68.98
2023-02-07T07:34:15.224Z,67.77
2023-02-07T07:37:20.919Z,66.66
2023-02-07T07:40:27.075Z,67.24
2023-02-07T07:43:33.380Z,67.46
2023-02-07T07:46:38.982Z,67.44
2023-02-07T07:49:44.216Z,66.58
2023-02-07T07:52:50.503Z,66.42
2023-02-07T07:55:55.222Z,66.50
2023-02-07T07:59:05.934Z,66.79
2023-02-07T08:02:10.616Z,65.94
2023-02-07T08:05:17.225Z,65.72
2023-02-07T08:08:26.440Z,65.32
2023-02-07T08:11:32.615Z,63.42
2023-02-07T08:14:42.460Z,62.35
2023-02-07T08:17:47.894Z,62.48
2023-02-07T08:20:55.080Z,62.09
2023-02-07T08:24:01.751Z,61.64
2023-02-07T08:27:08.036Z,61.46
2023-02-07T08:30:14.602Z,61.36
2023-02-07T08:33:23.940Z,61.07
2023-02-07T08:36:29.448Z,60.73
2023-02-07T08:39:35.696Z,60.88
2023-02-07T08:42:42.686Z,59.23
2023-02-07T08:45:48.557Z,59.82
2023-02-07T08:48:55.255Z,58.64
2023-02-07T08:51:54.349Z,59.10
2023-02-07T08:55:00.200Z,59.47
2023-02-07T08:58:06.871Z,59.05
2023-02-07T09:01:15.586Z,58.57
2023-02-07T09:04:21.370Z,59.26
2023-02-07T09:07:29.865Z,59.67
2023-02-07T09:10:38.649Z,60.60
2023-02-07T09:13:53.618Z,60.90
2023-02-07T09:17:01.014Z,61.24
2023-02-07T09:20:16.168Z,62.34
2023-02-07T09:27:07.391Z,63.01
2023-02-07T09:30:15.590Z,62.21
2023-02-07T09:33:21.217Z,62.50
2023-02-07T09:36:41.194Z,62.95
2023-02-07T09:39:48.036Z,62.95
2023-02-07T09:43:10.584Z,64.22
2023-02-07T09:46:23.550Z,62.98
2023-02-07T09:49:49.174Z,62.36
2023-02-07T09:53:07.382Z,61.30
2023-02-07T09:56:14.572Z,61.23
2023-02-07T09:59:58.834Z,61.48
2023-02-07T10:03:27.324Z,62.07
2023-02-07T10:06:40.430Z,62.64
2023-02-07T10:09:47.784Z,62.03
2023-02-07T10:13:13.882Z,62.97
2023-02-07T10:16:54.110Z,64.04
2023-02-07T10:20:27.796Z,61.80
2023-02-07T10:24:00.226Z,61.35
2023-02-07T10:27:10.761Z,60.52
2023-02-07T10:30:45.893Z,61.58
2023-02-07T10:33:54.136Z,62.63
2023-02-07T10:37:03.856Z,64.27
2023-02-07T10:40:41.532Z,63.77
2023-02-07T10:43:49.266Z,64.21
2023-02-07T10:46:57.214Z,64.37
2023-02-07T10:49:57.020Z,65.46
2023-02-07T10:53:01.736Z,64.41
2023-02-07T10:56:01.074Z,64.53
2023-02-07T10:59:07.220Z,64.98
2023-02-07T11:02:11.696Z,64.76
2023-02-07T11:05:31.665Z,65.63
2023-02-07T11:08:42.549Z,65.17
2023-02-07T11:11:50.245Z,64.75
2023-02-07T11:14:56.204Z,64.49
2023-02-07T11:18:08.271Z,65.93
2023-02-07T11:21:13.610Z,65.63
2023-02-07T11:24:30.072Z,65.43
2023-02-07T11:27:36.033Z,65.14
2023-02-07T11:30:42.623Z,64.64
2023-02-07T11:33:49.635Z,64.46
2023-02-07T11:36:56.839Z,64.14
2023-02-07T11:40:04.376Z,63.51
2023-02-07T11:43:17.115Z,64.19
2023-02-07T11:46:24.786Z,63.09
2023-02-07T11:49:51.211Z,63.04
2023-02-07T11:52:59.978Z,62.63
2023-02-07T11:56:06.248Z,62.45
2023-02-07T11:59:12.315Z,63.69
2023-02-07T12:02:39.007Z,62.35
2023-02-07T12:05:53.606Z,62.78
2023-02-07T12:09:00.891Z,62.30
2023-02-07T12:11:59.622Z,63.49
2023-02-07T12:15:11.516Z,63.47
2023-02-07T12:18:50.513Z,62.97
2023-02-07T12:22:16.200Z,63.01
2023-02-07T12:25:25.600Z,63.50
2023-02-07T12:29:04.024Z,63.36
2023-02-07T12:32:28.451Z,64.03
2023-02-07T12:35:58.162Z,65.04
2023-02-07T12:39:18.538Z,64.94
2023-02-07T12:42:47.180Z,65.37
2023-02-07T12:46:15.699Z,65.47
2023-02-07T12:49:28.898Z,65.32
2023-02-07T12:52:55.486Z,64.71
2023-02-07T12:56:08.838Z,64.94
2023-02-07T12:59:30.489Z,65.40
2023-02-07T13:03:06.006Z,65.65
2023-02-07T13:06:46.934Z,65.26
2023-02-07T13:09:59.424Z,64.48
2023-02-07T13:13:03.341Z,64.84
2023-02-07T13:16:22.350Z,65.00
2023-02-07T13:19:51.003Z,65.65
2023-02-07T13:23:14.346Z,67.14
2023-02-07T13:26:26.778Z,66.77
2023-02-07T13:29:33.338Z,65.15
2023-02-07T13:32:41.729Z,65.17
2023-02-07T13:35:48.566Z,65.76
2023-02-07T13:39:30.207Z,65.33
2023-02-07T13:43:19.097Z,65.97
2023-02-07T13:46:52.634Z,66.46
2023-02-07T13:50:20.759Z,66.07
2023-02-07T13:53:37.506Z,66.13
2023-02-07T13:57:06.705Z,66.31
2023-02-07T14:00:31.478Z,66.47
2023-02-07T14:03:24.855Z,67.02
2023-02-07T14:06:36.518Z,66.50
2023-02-07T14:09:51.074Z,66.82
2023-02-07T14:12:56.785Z,66.67
2023-02-07T14:16:13.441Z,65.95
2023-02-07T14:19:20.044Z,65.89
2023-02-07T14:22:56.957Z,66.33
2023-02-07T14:26:02.129Z,65.54
2023-02-07T14:29:07.772Z,65.98
2023-02-07T14:32:16.884Z,66.29
2023-02-07T14:35:30.299Z,66.43
2023-02-07T14:38:57.466Z,66.06
2023-02-07T14:42:04.387Z,65.92
2023-02-07T14:45:11.164Z,65.96
2023-02-07T14:48:16.816Z,66.17
2023-02-07T14:51:32.704Z,65.87
2023-02-07T14:54:59.676Z,66.95
2023-02-07T14:58:22.643Z,67.35
2023-02-07T15:01:30.987Z,67.47
2023-02-07T15:04:37.307Z,67.42
2023-02-07T15:07:42.945Z,66.83
2023-02-07T15:10:55.656Z,67.73
2023-02-07T15:14:02.412Z,68.06
2023-02-07T15:17:08.003Z,68.57
2023-02-07T15:20:15.918Z,68.21
2023-02-07T15:23:21.234Z,68.23
2023-02-07T15:26:26.013Z,68.23
2023-02-07T15:29:44.826Z,68.37
2023-02-07T15:32:58.367Z,68.62
2023-02-07T15:36:04.208Z,68.79
2023-02-07T15:39:10.586Z,68.68
2023-02-07T15:42:16.587Z,68.33
2023-02-07T15:45:24.652Z,68.72
2023-02-07T15:48:32.344Z,68.57
2023-02-07T15:51:44.304Z,68.79
2023-02-07T15:54:46.586Z,68.75
2023-02-07T15:57:44.587Z,68.92
2023-02-07T16:00:45.965Z,69.31
2023-02-07T16:03:51.021Z,69.79
2023-02-07T16:07:09.845Z,70.25
2023-02-07T16:10:41.806Z,70.50
2023-02-07T16:13:47.037Z,70.71
2023-02-07T16:17:04.623Z,70.94
2023-02-07T16:20:10.226Z,71.06
2023-02-07T16:23:18.385Z,71.22
2023-02-07T16:26:23.721Z,71.42
2023-02-07T16:29:37.776Z,71.16
2023-02-07T16:32:46.128Z,70.84
2023-02-07T16:35:52.728Z,70.46
2023-02-07T16:38:58.562Z,70.72
2023-02-07T16:42:11.633Z,70.39
2023-02-07T16:45:16.522Z,69.92
2023-02-07T16:48:24.908Z,70.39
2023-02-07T16:51:31.395Z,70.23
2023-02-07T16:54:36.975Z,69.99
2023-02-07T16:57:43.428Z,70.24
2023-02-07T17:00:50.304Z,70.64
2023-02-07T17:03:50.606Z,70.90
2023-02-07T17:06:57.138Z,70.88
2023-02-07T17:10:02.438Z,70.39
2023-02-07T17:13:08.762Z,70.29
2023-02-07T17:16:13.964Z,70.00
2023-02-07T17:19:32.691Z,70.18
2023-02-07T17:22:37.752Z,70.02
2023-02-07T17:25:45.558Z,69.53
2023-02-07T17:28:51.995Z,69.50
2023-02-07T17:31:58.118Z,69.34
2023-02-07T17:35:04.463Z,71.01
2023-02-07T17:38:11.029Z,69.82
2023-02-07T17:41:16.782Z,69.93
2023-02-07T17:44:21.819Z,69.56
2023-02-07T17:47:27.424Z,69.24
2023-02-07T17:50:37.955Z,68.76
2023-02-07T17:53:51.374Z,69.12
2023-02-07T17:56:57.865Z,68.64
2023-02-07T18:00:03.791Z,68.16
2023-02-07T18:03:10.928Z,67.82
2023-02-07T18:06:16.328Z,67.30
2023-02-07T18:09:24.723Z,70.26
2023-02-07T18:12:30.932Z,68.68
2023-02-07T18:15:38.051Z,68.39
2023-02-07T18:18:45.762Z,68.59
2023-02-07T18:21:51.278Z,68.66
2023-02-07T18:24:57.378Z,68.71
2023-02-07T18:28:03.058Z,68.88
2023-02-07T18:31:08.443Z,68.89
2023-02-07T18:34:15.273Z,69.17
2023-02-07T18:37:21.177Z,69.42
2023-02-07T18:40:27.430Z,68.98
2023-02-07T18:43:33.722Z,69.25
2023-02-07T18:46:40.191Z,69.42
2023-02-07T18:49:45.919Z,69.00
2023-02-07T18:52:51.300Z,69.31
2023-02-07T18:56:00.481Z,69.12
2023-02-07T18:59:06.118Z,69.08
2023-02-07T19:02:12.421Z,68.58
2023-02-07T19:05:18.665Z,68.76
2023-02-07T19:08:24.972Z,68.61
2023-02-07T19:11:29.900Z,68.43
2023-02-07T19:14:38.539Z,68.77
2023-02-07T19:17:44.938Z,68.56
2023-02-07T19:20:45.255Z,68.28
2023-02-07T19:23:51.123Z,68.20
2023-02-07T19:26:56.090Z,67.42
2023-02-07T19:30:02.292Z,67.59
2023-02-07T19:33:09.137Z,67.36
2023-02-07T19:36:23.744Z,67.81
2023-02-07T19:39:29.589Z,68.22
2023-02-07T19:42:35.901Z,67.50
2023-02-07T19:45:35.036Z,67.10
2023-02-07T19:48:41.175Z,67.64
2023-02-07T19:51:40.973Z,67.40
2023-02-07T19:54:46.915Z,67.53
2023-02-07T19:57:53.388Z,67.67
2023-02-07T20:00:59.182Z,67.78
2023-02-07T20:04:08.000Z,67.53
2023-02-07T20:07:14.144Z,68.03
2023-02-07T20:10:19.971Z,68.33
2023-02-07T20:13:29.405Z,68.63
2023-02-07T20:16:40.176Z,67.98
2023-02-07T20:19:46.072Z,68.30
2023-02-07T20:22:51.837Z,68.32
2023-02-07T20:25:58.480Z,68.43
2023-02-07T20:29:05.148Z,68.37
2023-02-07T20:32:11.178Z,68.29
2023-02-07T20:35:17.199Z,68.45
2023-02-07T20:38:22.370Z,68.39
2023-02-07T20:41:37.141Z,68.36
2023-02-07T20:44:43.432Z,68.13
2023-02-07T20:47:49.313Z,68.22
2023-02-07T20:50:55.041Z,68.74
2023-02-07T20:54:00.683Z,68.91
2023-02-07T20:57:07.668Z,68.96
2023-02-07T21:00:16.259Z,68.58
2023-02-07T21:03:21.836Z,68.11
2023-02-07T21:06:30.053Z,68.00
2023-02-07T21:09:36.464Z,68.65
2023-02-07T21:12:42.946Z,68.37
2023-02-07T21:16:02.323Z,68.19
2023-02-07T21:18:54.408Z,68.74
2023-02-07T21:22:02.569Z,68.67
2023-02-07T21:25:09.199Z,68.88
2023-02-07T21:28:16.120Z,69.13
2023-02-07T21:31:30.103Z,68.95
2023-02-07T21:34:35.055Z,69.50
2023-02-07T21:37:41.414Z,70.37
2023-02-07T21:40:48.330Z,69.69
2023-02-07T21:43:54.880Z,69.92
2023-02-07T21:47:00.276Z,70.19
2023-02-07T21:50:04.986Z,70.46
2023-02-07T21:53:09.806Z,70.02
2023-02-07T21:56:18.490Z,69.78
2023-02-07T21:59:28.032Z,69.39
2023-02-07T22:02:33.666Z,69.74
2023-02-07T22:05:39.144Z,70.83
2023-02-07T22:08:44.040Z,70.27
2023-02-07T22:11:50.258Z,70.10
2023-02-07T22:14:56.005Z,69.99
2023-02-07T22:18:02.433Z,69.52
2023-02-07T22:21:08.977Z,69.30
2023-02-07T22:24:15.328Z,69.97
2023-02-07T22:27:21.750Z,69.54
2023-02-07T22:30:29.173Z,69.26
2023-02-07T22:33:34.733Z,69.15
2023-02-07T22:36:44.666Z,69.61
2023-02-07T22:39:50.535Z,70.01
2023-02-07T22:42:56.871Z,70.37
2023-02-07T22:46:03.531Z,71.50
2023-02-07T22:49:09.309Z,70.43
2023-02-07T22:52:14.555Z,70.24
2023-02-07T22:55:20.336Z,70.30
2023-02-07T22:58:31.223Z,70.23
2023-02-07T23:01:45.786Z,69.99
2023-02-07T23:04:53.412Z,70.14
2023-02-07T23:08:00.880Z,70.59
2023-02-07T23:11:06.781Z,70.71
2023-02-07T23:14:11.930Z,71.11
2023-02-07T23:17:12.033Z,71.15
2023-02-07T23:20:11.870Z,71.69
2023-02-07T23:23:17.828Z,71.78
2023-02-07T23:26:25.896Z,71.69
2023-02-07T23:29:32.728Z,71.39
2023-02-07T23:32:38.384Z,72.31
2023-02-07T23:35:45.192Z,71.73
2023-02-07T23:38:50.953Z,71.29
2023-02-07T23:41:57.166Z,71.68
2023-02-07T23:45:04.025Z,71.41
2023-02-07T23:48:10.129Z,70.94
2023-02-07T23:51:17.206Z,69.98
2023-02-07T23:54:22.995Z,69.43
2023-02-07T23:57:28.594Z,69.86
